• Join FlightAware (Why Join?)
  • Login
  • US Flag 
03:19PM EST


 

Airport Tracker/Info


-or-


 

Live Flight TrackerFlight Track Log ✈ SWA1368 ✈ 25-Jun-2014 ✈ KTPA - KRDU

Flight Track Log - Related Links

Times and Time Zones

All times are in EDT time to prevent confusion due to time zone crossing. See the SWA1368 flight status page for this flight to view local times or setup timezone preferences in your user account.

Time Position Orientation Groundspeed Altitude Reporting Facility
EDT Latitude Longitude Course Direction KTS MPH feet Rate Location/Type
11:20PM 27.9833 -82.5333 360° North 155 178 1,000  Level Tampa TRACON
11:21PM 28.0500 -82.5333 360° North 209 241 3,400 2,940 Climbing Tampa TRACON
11:23PM 28.2036 -82.5558 353° North 278 320 10,400 3,180 Climbing Jacksonville Center
11:24PM 28.2936 -82.5697 352° North 296 341 13,500 3,300 Climbing Jacksonville Center
11:25PM 28.3875 -82.5811 354° North 319 367 17,100 3,420 Climbing Jacksonville Center
11:26PM 28.4897 -82.5856 358° North 346 398 20,400 3,060 Climbing Jacksonville Center
11:27PM 28.5983 -82.5875 359° North 367 422 23,300 2,640 Climbing Jacksonville Center
11:28PM 28.6983 -82.5919 358° North 384 442 25,700 2,400 Climbing Jacksonville Center
11:29PM 28.8133 -82.6083 353° North 403 464 28,200 2,340 Climbing Jacksonville Center
11:30PM 28.9322 -82.6244 353° North 415 478 30,400 2,340 Climbing Jacksonville Center
11:31PM 29.0575 -82.6431 353° North 431 496 32,900 2,640 Climbing Jacksonville Center
11:32PM 29.1725 -82.6572 354° North 431 496 35,700 2,400 Climbing Jacksonville Center
11:33PM 29.2872 -82.6758 352° North 421 484 37,800 1,920 Climbing Jacksonville Center
11:34PM 29.4000 -82.6756 360° North 415 478 39,600 1,560 Climbing Jacksonville Center
11:35PM 29.5125 -82.6372 17° North 402 463 41,000 660 Climbing Jacksonville Center
11:36PM 29.6231 -82.5986 17° North 407 468 41,000  Level Jacksonville Center
11:37PM 29.7336 -82.5578 18° North 413 475 41,000  Level Jacksonville Center
11:38PM 29.8442 -82.5189 17° North 418 481 41,000  Level Jacksonville Center
11:39PM 29.9547 -82.4803 17° North 418 481 41,000  Level Jacksonville Center
11:40PM 30.0633 -82.4461 15° North 413 475 41,000  Level Jacksonville Center
11:41PM 30.1717 -82.4097 16° North 408 470 41,000  Level Jacksonville Center
11:42PM 30.2822 -82.3706 17° North 408 470 41,000  Level Jacksonville Center
11:43PM 30.3925 -82.3267 19° North 408 470 41,000  Level Jacksonville Center
11:44PM 30.5031 -82.2875 17° North 413 475 41,000  Level Jacksonville Center
11:45PM 30.6114 -82.2528 15° North 413 475 41,000  Level Jacksonville Center
11:46PM 30.7242 -82.2136 17° North 413 475 41,000  Level Jacksonville Center
11:47PM 30.8344 -82.1764 16° North 413 475 41,000  Level Jacksonville Center
11:48PM 30.9406 -82.1200 25° Northeast 413 475 41,000  Level Jacksonville Center
11:49PM 31.0467 -82.0583 26° Northeast 413 475 41,000  Level Jacksonville Center
11:50PM 31.1528 -82.0017 25° Northeast 413 475 41,000  Level Jacksonville Center
11:51PM 31.2650 -81.9350 27° Northeast 418 481 41,000  Level Jacksonville Center
11:52PM 31.3567 -81.8853 25° Northeast 405 466 41,000  Level Jacksonville Center
11:53PM 31.4708 -81.8208 26° Northeast 405 466 41,000  Level Jacksonville Center
11:54PM 31.5644 -81.7686 25° Northeast 405 466 41,000  Level Jacksonville Center
11:55PM 31.6767 -81.7036 26° Northeast 409 471 41,000  Level Jacksonville Center
11:56PM 31.7783 -81.6461 26° Northeast 400 460 41,000  Level Jacksonville Center
11:57PM 31.8717 -81.5911 27° Northeast 406 467 41,000  Level Jacksonville Center
11:58PM 31.9858 -81.5258 26° Northeast 401 461 41,000  Level Jacksonville Center
11:59PM 32.0897 -81.4678 25° Northeast 421 484 41,000  Level Jacksonville Center
12:00AM 32.1892 -81.4172 23° Northeast 413 475 41,000  Level Jacksonville Center
12:01AM 32.2928 -81.3467 30° Northeast 421 484 41,000  Level Jacksonville Center
12:02AM 32.4006 -81.2858 25° Northeast 426 490 41,000  Level Jacksonville Center
12:03AM 32.5167 -81.2197 26° Northeast 420 483 41,000  Level Jacksonville Center
12:04AM 32.6119 -81.1636 26° Northeast 420 483 41,000  Level Jacksonville Center
12:05AM 32.7175 -81.1000 27° Northeast 425 489 41,000  Level Jacksonville Center
12:06AM 32.8211 -81.0411 26° Northeast 420 483 41,000 -60 Level Jacksonville Center
12:07AM 32.9267 -80.9794 26° Northeast 420 483 40,900 -600 Descending Jacksonville Center
12:08AM 33.0342 -80.9128 27° Northeast 420 483 39,900 -960 Descending Jacksonville Center
12:09AM 33.1519 -80.8481 25° Northeast 420 483 39,000 -840 Descending Jacksonville Center
12:10AM 33.2572 -80.7786 29° Northeast 420 483 38,300 -1,080 Descending Jacksonville Center
12:11AM 33.3625 -80.7042 31° Northeast 425 489 36,900 -660 Descending Jacksonville Center
12:12AM 33.4592 -80.6244 35° Northeast 430 495 37,000  Climbing Jacksonville Center
12:13AM 33.5619 -80.5447 33° Northeast 430 495 37,000  Level Jacksonville Center
12:15AM 33.7614 -80.3894 33° Northeast 430 495 37,000  Level Jacksonville Center
12:16AM 33.8622 -80.3092 33° Northeast 430 495 37,000  Level Jacksonville Center
12:17AM 33.9736 -80.2506 24° Northeast 423 487 37,000 -120 Level Jacksonville Center
12:18AM 34.0850 -80.1922 23° Northeast 428 493 36,800 -1,260 Descending Jacksonville Center
12:19AM 34.1944 -80.1361 23° Northeast 428 493 34,500 -2,400 Descending Jacksonville Center
12:20AM 34.3036 -80.0797 23° Northeast 428 493 32,000 -2,400 Descending Jacksonville Center
12:21AM 34.4089 -80.0208 25° Northeast 422 486 29,800 -2,160 Descending Jacksonville Center
12:22AM 34.5625 -79.9347 25° Northeast 401 461 26,400 -2,220 Descending Washington Center
12:23AM 34.6664 -79.8822 23° Northeast 401 461 24,100 -1,200 Descending Washington Center
12:24AM 34.7644 -79.8292 24° Northeast 396 456 24,000 -60 Descending Washington Center
12:25AM 34.8622 -79.7786 23° Northeast 385 443 24,000  Level Washington Center
12:26AM 34.9600 -79.7253 24° Northeast 380 437 24,000 -540 Level Washington Center
12:27AM 35.0600 -79.6722 23° Northeast 380 437 23,000 -1,920 Descending Washington Center
12:28AM 35.1600 -79.6086 27° Northeast 390 449 20,200 -2,760 Descending Washington Center
12:29AM 35.2156 -79.5758 26° Northeast 405 466 19,000 -2,340 Descending Washington Center
12:29AM 35.2644 -79.5425 29° Northeast 390 449 17,900 -2,220 Descending Washington Center
12:29AM 35.2794 -79.5358 20° North 384 442 17,400 -1,620 Descending Washington Center
12:30AM 35.3456 -79.4931 28° Northeast 377 434 16,300 -1,260 Descending Washington Center
12:31AM 35.4542 -79.4269 26° Northeast 335 386 15,000 -1,080 Descending Washington Center
12:32AM 35.5078 -79.3786 36° Northeast 325 374 14,200 -1,020 Descending Washington Center
12:32AM 35.5231 -79.3564 50° Northeast 321 369 14,000 -1,080 Descending Washington Center
12:33AM 35.5692 -79.2819 53° Northeast 314 361 13,100 -1,140 Descending Washington Center
12:34AM 35.5844 -79.2569 53° Northeast 319 367 12,800 -1,080 Descending Washington Center
12:34AM 35.6219 -79.1950 53° Northeast 321 369 12,100 -960 Descending Washington Center
12:35AM 35.6353 -79.1672 59° Northeast 314 361 11,800 -1,200 Descending Washington Center
12:35AM 35.6681 -79.1178 51° Northeast 314 361 10,900 -1,560 Descending Washington Center
12:36AM 35.6836 -79.0878 57° Northeast 307 353 10,300 -1,380 Descending Washington Center
12:36AM 35.7206 -79.0306 51° Northeast 303 349 9,600 -1,200 Descending Washington Center
12:37AM 35.7339 -79.0081 54° Northeast 289 333 9,100 -1,320 Descending Washington Center
12:37AM 35.7667 -78.9531 54° Northeast 292 336 8,300 -1,140 Descending Washington Center
12:38AM 35.7778 -78.9306 59° Northeast 274 315 8,000 -1,020 Descending Washington Center
12:38AM 35.8003 -78.8753 63° Northeast 271 312 7,300 -1,020 Descending Washington Center
12:39AM 35.7967 -78.8469 99° East 260 299 7,000 -1,080 Descending Washington Center
12:40AM 35.8056 -78.7550 83° East 250 288 5,900 -1,080 Descending Washington Center
12:41AM 35.8386 -78.6847 60° Northeast 241 277 4,900 -1,200 Descending Washington Center
12:42AM 35.8839 -78.6300 44° Northeast 218 251 3,600 -960 Descending Washington Center
12:43AM 35.9267 -78.5906 37° Northeast 207 238 3,000 -660 Descending Washington Center
12:44AM 35.9461 -78.6400 296° West 187 215 2,300 -600 Descending Washington Center
12:45AM 35.9278 -78.7033 250° West 191 220 1,800 -540 Descending Washington Center
12:46AM 35.9081 -78.7436 239° Southwest 127 146 1,200 -600 Descending Washington Center
12:47AM 35.8842 -78.7736 226° Southwest 110 127 600 -660 Descending Washington Center
12:49AM 35.8667 -78.7833 241° Southwest  Level FlightAware Approximate